Time;durP1;ratioP1;P1;durP2;ratioP2;P2;SDS_P1;SDS_P2;PMS_P1;PMS_P2;Temp;Humidity;BMP_temperature;BMP_pressure;BME280_temperature;BME280_humidity;BME280_pressure;Samples;Min_cycle;Max_cycle;Signal;HPM_P1;HPM_P2
2024/02/29 00:00:58;;;;;;;85.35;13.43;;;;;;;;;;5033185;28;20624;-46
2024/02/29 00:03:25;;;;;;;84.57;11.65;;;;;;;;;;5026562;28;20034;-48
2024/02/29 00:05:53;;;;;;;83.57;11.82;;;;;;;;;;5028007;28;20044;-45
2024/02/29 00:08:20;;;;;;;98.70;12.75;;;;;;;;;;5028513;28;20050;-46
2024/02/29 00:10:47;;;;;;;84.18;12.25;;;;;;;;;;5023573;28;20037;-44
2024/02/29 00:13:20;;;;;;;65.88;10.98;;;;;;;;;;5028051;28;20081;-47
2024/02/29 00:15:47;;;;;;;91.25;12.18;;;;;;;;;;5028566;28;20512;-46
2024/02/29 00:18:14;;;;;;;90.53;14.00;;;;;;;;;;5031285;28;21587;-44
2024/02/29 00:20:41;;;;;;;104.97;14.50;;;;;;;;;;5028702;28;20168;-47
2024/02/29 00:23:08;;;;;;;95.57;14.77;;;;;;;;;;5032671;28;20390;-44
2024/02/29 00:25:35;;;;;;;89.28;11.90;;;;;;;;;;5026959;28;20117;-46
2024/02/29 00:28:02;;;;;;;93.38;13.32;;;;;;;;;;5017897;28;20045;-44
2024/02/29 00:30:29;;;;;;;91.45;13.57;;;;;;;;;;5022933;28;20042;-46
2024/02/29 00:32:56;;;;;;;94.60;13.80;;;;;;;;;;5030064;28;20041;-46
2024/02/29 00:35:23;;;;;;;97.78;14.52;;;;;;;;;;5025147;28;20542;-46
2024/02/29 00:37:50;;;;;;;93.60;14.88;;;;;;;;;;5025540;28;20037;-44
2024/02/29 00:40:17;;;;;;;103.53;15.40;;;;;;;;;;5016124;28;20057;-43
2024/02/29 00:42:44;;;;;;;107.20;14.80;;;;;;;;;;5044080;28;20399;-41
2024/02/29 00:45:11;;;;;;;80.93;13.60;;;;;;;;;;5071507;28;20044;-44
2024/02/29 00:47:38;;;;;;;75.90;12.63;;;;;;;;;;5069100;28;20028;-42
2024/02/29 00:50:07;;;;;;;92.68;12.65;;;;;;;;;;5057044;28;20036;-43
2024/02/29 00:52:34;;;;;;;75.90;11.60;;;;;;;;;;5069510;28;20426;-42
2024/02/29 00:55:03;;;;;;;89.38;11.35;;;;;;;;;;5060853;28;20033;-43
2024/02/29 00:57:30;;;;;;;68.55;11.27;;;;;;;;;;5064365;28;20034;-42
2024/02/29 00:59:57;;;;;;;74.63;10.68;;;;;;;;;;5064192;28;20028;-45
2024/02/29 01:02:24;;;;;;;68.30;10.10;;;;;;;;;;5069935;28;20486;-43
2024/02/29 01:04:51;;;;;;;52.28;9.82;;;;;;;;;;5072213;28;20111;-44
2024/02/29 01:07:18;;;;;;;71.03;10.18;;;;;;;;;;5071163;28;20043;-45
2024/02/29 01:09:45;;;;;;;69.60;9.55;;;;;;;;;;5065370;28;20023;-44
2024/02/29 01:12:12;;;;;;;63.13;10.23;;;;;;;;;;5066596;28;20036;-43
2024/02/29 01:14:39;;;;;;;62.00;8.57;;;;;;;;;;5072301;28;20020;-44
2024/02/29 01:17:06;;;;;;;49.13;8.38;;;;;;;;;;5065030;28;20036;-44
2024/02/29 01:19:33;;;;;;;49.40;8.13;;;;;;;;;;5052857;28;20650;-43
2024/02/29 01:22:02;;;;;;;56.38;8.05;;;;;;;;;;5070765;28;20020;-42
2024/02/29 01:24:29;;;;;;;55.75;7.93;;;;;;;;;;5071898;28;20029;-43
2024/02/29 01:26:56;;;;;;;54.60;8.07;;;;;;;;;;5071828;28;20036;-43
2024/02/29 01:29:23;;;;;;;45.65;7.22;;;;;;;;;;5070636;28;20109;-44
2024/02/29 01:31:50;;;;;;;60.13;6.72;;;;;;;;;;5071963;28;20024;-43
2024/02/29 01:34:18;;;;;;;43.22;6.55;;;;;;;;;;5072210;28;20509;-43
2024/02/29 01:36:45;;;;;;;39.67;5.18;;;;;;;;;;5072216;28;20117;-44
2024/02/29 01:39:12;;;;;;;32.80;4.35;;;;;;;;;;5070998;28;20040;-43
2024/02/29 01:41:39;;;;;;;29.88;4.68;;;;;;;;;;5062962;28;20037;-44
2024/02/29 01:44:06;;;;;;;31.77;4.60;;;;;;;;;;5069428;28;20082;-43
2024/02/29 01:46:33;;;;;;;27.23;5.28;;;;;;;;;;5071963;28;20036;-44
2024/02/29 01:49:02;;;;;;;34.65;4.90;;;;;;;;;;5071621;28;20024;-43
2024/02/29 01:51:29;;;;;;;29.15;4.82;;;;;;;;;;5072009;28;20040;-43
2024/02/29 01:53:56;;;;;;;36.00;5.55;;;;;;;;;;5070745;28;20039;-43
2024/02/29 01:56:23;;;;;;;30.75;4.90;;;;;;;;;;5071783;28;20032;-43
2024/02/29 01:58:50;;;;;;;31.92;5.40;;;;;;;;;;5068303;28;20020;-43
2024/02/29 02:01:17;;;;;;;38.67;5.80;;;;;;;;;;5070641;28;20037;-43
2024/02/29 02:03:44;;;;;;;41.80;5.43;;;;;;;;;;5064054;28;20032;-40
2024/02/29 02:06:11;;;;;;;21.02;3.00;;;;;;;;;;5070850;28;20024;-41
2024/02/29 02:08:38;;;;;;;12.05;2.42;;;;;;;;;;5087089;28;20557;-42
2024/02/29 02:11:05;;;;;;;13.05;2.30;;;;;;;;;;5066224;28;20031;-40
2024/02/29 02:13:32;;;;;;;9.57;2.17;;;;;;;;;;5063614;28;20044;-40
2024/02/29 02:15:59;;;;;;;8.30;1.73;;;;;;;;;;5070765;28;20043;-41
2024/02/29 02:18:26;;;;;;;17.85;1.60;;;;;;;;;;5068315;28;20040;-43
2024/02/29 02:20:56;;;;;;;11.57;1.20;;;;;;;;;;5052636;28;20036;-40
2024/02/29 02:23:23;;;;;;;7.20;1.45;;;;;;;;;;5068881;28;20032;-42
2024/02/29 02:25:50;;;;;;;5.70;1.30;;;;;;;;;;5070343;28;20017;-42
2024/02/29 02:28:19;;;;;;;13.82;1.05;;;;;;;;;;5070307;28;20123;-42
2024/02/29 02:30:46;;;;;;;5.65;0.60;;;;;;;;;;5070178;28;20482;-42
2024/02/29 02:33:13;;;;;;;8.10;0.77;;;;;;;;;;5070320;28;20041;-40
2024/02/29 02:35:40;;;;;;;16.90;1.27;;;;;;;;;;5068138;28;20387;-40
2024/02/29 02:38:07;;;;;;;7.75;0.90;;;;;;;;;;5070677;28;20069;-40
2024/02/29 02:40:37;;;;;;;6.20;0.85;;;;;;;;;;5070726;28;20051;-41
2024/02/29 02:43:04;;;;;;;5.53;0.95;;;;;;;;;;5070564;28;20102;-42
2024/02/29 02:45:31;;;;;;;7.32;0.90;;;;;;;;;;5070580;28;20020;-40
2024/02/29 02:47:58;;;;;;;5.75;1.20;;;;;;;;;;5070624;28;20475;-42
2024/02/29 02:50:25;;;;;;;8.27;0.90;;;;;;;;;;5070479;28;20032;-40
2024/02/29 02:52:52;;;;;;;8.23;0.60;;;;;;;;;;5070566;28;20699;-42
2024/02/29 02:55:19;;;;;;;7.70;1.05;;;;;;;;;;5070478;28;20020;-40
2024/02/29 02:57:46;;;;;;;8.38;0.90;;;;;;;;;;5070115;28;20107;-40
2024/02/29 03:00:13;;;;;;;8.27;1.17;;;;;;;;;;5070575;28;20017;-42
2024/02/29 03:02:40;;;;;;;22.35;1.98;;;;;;;;;;5070397;28;20036;-42
2024/02/29 03:05:09;;;;;;;13.45;1.40;;;;;;;;;;5071652;28;20542;-42
2024/02/29 03:07:36;;;;;;;10.38;1.15;;;;;;;;;;5074317;28;20043;-41
2024/02/29 03:10:03;;;;;;;11.32;1.30;;;;;;;;;;5074579;28;20028;-40
2024/02/29 03:12:30;;;;;;;14.23;1.48;;;;;;;;;;5074534;28;20028;-42
2024/02/29 03:14:57;;;;;;;25.20;2.33;;;;;;;;;;5074588;28;20494;-41
2024/02/29 03:17:24;;;;;;;24.58;2.13;;;;;;;;;;5073108;28;20024;-41
2024/02/29 03:19:51;;;;;;;17.05;2.15;;;;;;;;;;5069955;28;20021;-40
2024/02/29 03:22:18;;;;;;;16.92;1.63;;;;;;;;;;5073102;28;20028;-41
2024/02/29 03:24:45;;;;;;;14.20;1.55;;;;;;;;;;5055869;28;20029;-40
2024/02/29 03:27:13;;;;;;;14.55;1.70;;;;;;;;;;5071726;28;20029;-40
2024/02/29 03:29:42;;;;;;;13.75;1.75;;;;;;;;;;5073850;28;20098;-40
2024/02/29 03:32:10;;;;;;;18.70;1.80;;;;;;;;;;5074273;28;20021;-43
2024/02/29 03:34:37;;;;;;;15.05;1.73;;;;;;;;;;5073930;28;20043;-41
2024/02/29 03:37:04;;;;;;;12.88;1.50;;;;;;;;;;5071578;28;20024;-40
2024/02/29 03:39:31;;;;;;;10.27;1.30;;;;;;;;;;5073914;28;20279;-43
2024/02/29 03:41:58;;;;;;;11.85;1.48;;;;;;;;;;5073719;28;20036;-41
2024/02/29 03:44:25;;;;;;;16.17;2.58;;;;;;;;;;5073823;28;20032;-40
2024/02/29 03:46:52;;;;;;;14.60;1.60;;;;;;;;;;5071199;28;20025;-43
2024/02/29 03:49:19;;;;;;;13.65;1.90;;;;;;;;;;5073760;28;20040;-39
2024/02/29 03:51:46;;;;;;;16.85;1.33;;;;;;;;;;5073946;28;20024;-42
2024/02/29 03:54:13;;;;;;;8.15;1.10;;;;;;;;;;5073761;28;20032;-40
2024/02/29 03:56:40;;;;;;;9.50;1.35;;;;;;;;;;5073806;28;20021;-40
2024/02/29 03:59:07;;;;;;;7.80;1.48;;;;;;;;;;5073737;28;20028;-42
2024/02/29 04:01:34;;;;;;;12.25;1.20;;;;;;;;;;5070921;28;20058;-41
2024/02/29 04:04:00;;;;;;;12.93;1.83;;;;;;;;;;5073700;28;20125;-42
2024/02/29 04:06:27;;;;;;;8.93;1.08;;;;;;;;;;5073687;28;20059;-40
2024/02/29 04:08:55;;;;;;;9.32;1.30;;;;;;;;;;5070905;28;20031;-42
2024/02/29 04:11:22;;;;;;;7.45;1.00;;;;;;;;;;5055441;28;20368;-42
2024/02/29 04:13:50;;;;;;;11.63;1.38;;;;;;;;;;5055385;28;20040;-41
2024/02/29 04:16:17;;;;;;;5.63;1.00;;;;;;;;;;5072938;28;20054;-42
2024/02/29 04:18:44;;;;;;;8.57;1.52;;;;;;;;;;5072981;28;20463;-40
2024/02/29 04:21:11;;;;;;;10.73;1.38;;;;;;;;;;5055192;28;20032;-41
2024/02/29 04:23:38;;;;;;;7.40;1.27;;;;;;;;;;5073058;28;20437;-41
2024/02/29 04:26:05;;;;;;;10.07;1.23;;;;;;;;;;5073101;28;20026;-42
2024/02/29 04:28:36;;;;;;;11.30;1.30;;;;;;;;;;5073146;28;20059;-40
2024/02/29 04:31:05;;;;;;;14.15;1.33;;;;;;;;;;5070673;28;20496;-40
2024/02/29 04:33:32;;;;;;;12.55;1.15;;;;;;;;;;5073077;28;20059;-40
2024/02/29 04:35:59;;;;;;;12.20;1.30;;;;;;;;;;5073029;28;20043;-40
2024/02/29 04:38:28;;;;;;;11.25;1.58;;;;;;;;;;5072968;28;20025;-41
2024/02/29 04:40:55;;;;;;;11.15;1.20;;;;;;;;;;5072939;28;20098;-41
2024/02/29 04:43:22;;;;;;;12.43;1.40;;;;;;;;;;5070145;28;20048;-39
2024/02/29 04:45:49;;;;;;;12.63;1.63;;;;;;;;;;5072908;28;20021;-40
2024/02/29 04:48:16;;;;;;;11.68;1.50;;;;;;;;;;5072755;28;20109;-41
2024/02/29 04:50:43;;;;;;;9.73;1.50;;;;;;;;;;5070352;28;20056;-41
2024/02/29 04:53:10;;;;;;;7.85;1.20;;;;;;;;;;5072616;28;20042;-42
2024/02/29 04:55:37;;;;;;;12.40;1.83;;;;;;;;;;5072659;28;20445;-40
2024/02/29 04:58:04;;;;;;;10.73;1.38;;;;;;;;;;5072475;28;20021;-41
2024/02/29 05:00:31;;;;;;;10.68;1.70;;;;;;;;;;5072653;28;20040;-41
2024/02/29 05:02:58;;;;;;;14.30;1.95;;;;;;;;;;5072106;28;20513;-40
2024/02/29 05:05:27;;;;;;;7.97;1.77;;;;;;;;;;5073009;28;20063;-41
2024/02/29 05:07:54;;;;;;;10.38;1.70;;;;;;;;;;5072937;28;20037;-41
2024/02/29 05:10:22;;;;;;;10.80;1.67;;;;;;;;;;5072893;28;20090;-40
2024/02/29 05:12:53;;;;;;;9.90;1.52;;;;;;;;;;5072903;28;20053;-41
2024/02/29 05:15:20;;;;;;;10.45;1.60;;;;;;;;;;5072789;28;20040;-41
2024/02/29 05:17:48;;;;;;;11.88;1.70;;;;;;;;;;5072891;28;20035;-41
2024/02/29 05:20:15;;;;;;;13.38;1.83;;;;;;;;;;5072820;28;20386;-40
2024/02/29 05:22:43;;;;;;;7.35;1.90;;;;;;;;;;5072758;28;20123;-41
2024/02/29 05:25:10;;;;;;;17.27;1.77;;;;;;;;;;5072614;28;20064;-39
2024/02/29 05:27:38;;;;;;;15.25;1.65;;;;;;;;;;5072566;28;20021;-40
2024/02/29 05:30:05;;;;;;;10.93;1.95;;;;;;;;;;5072657;28;20031;-39
2024/02/29 05:32:32;;;;;;;9.20;1.80;;;;;;;;;;5072289;28;20386;-39
2024/02/29 05:34:59;;;;;;;9.23;1.90;;;;;;;;;;5072595;28;20098;-39
2024/02/29 05:37:27;;;;;;;11.00;1.90;;;;;;;;;;5072446;28;20036;-39
2024/02/29 05:39:53;;;;;;;5.30;1.48;;;;;;;;;;5072240;28;20485;-39
2024/02/29 05:42:22;;;;;;;13.18;1.70;;;;;;;;;;5072258;28;20048;-39
2024/02/29 05:44:49;;;;;;;8.85;1.85;;;;;;;;;;5072386;28;20036;-40
2024/02/29 05:47:16;;;;;;;9.95;1.60;;;;;;;;;;5072262;28;20017;-40
2024/02/29 05:49:43;;;;;;;8.43;1.77;;;;;;;;;;5072188;28;20052;-39
2024/02/29 05:52:10;;;;;;;12.32;1.65;;;;;;;;;;5072205;28;20025;-39
2024/02/29 05:54:37;;;;;;;15.90;2.10;;;;;;;;;;5072015;28;20052;-39
2024/02/29 05:57:06;;;;;;;11.90;1.40;;;;;;;;;;5072409;28;20038;-39
2024/02/29 05:59:33;;;;;;;9.75;1.77;;;;;;;;;;5071844;28;20111;-39
2024/02/29 06:02:00;;;;;;;9.00;1.80;;;;;;;;;;5070692;28;20035;-39
2024/02/29 06:04:27;;;;;;;12.85;1.85;;;;;;;;;;5072011;28;20032;-39
2024/02/29 06:06:54;;;;;;;13.30;1.92;;;;;;;;;;5071926;28;20070;-39
2024/02/29 06:09:21;;;;;;;12.05;1.83;;;;;;;;;;5071809;28;20017;-40
2024/02/29 06:11:48;;;;;;;9.32;1.98;;;;;;;;;;5071937;28;20027;-39
2024/02/29 06:14:15;;;;;;;9.60;1.40;;;;;;;;;;5071869;28;20036;-39
2024/02/29 06:16:42;;;;;;;9.15;1.80;;;;;;;;;;5071834;28;20090;-39
2024/02/29 06:19:09;;;;;;;9.07;1.73;;;;;;;;;;5071708;28;20035;-39
2024/02/29 06:21:36;;;;;;;10.98;1.80;;;;;;;;;;5071818;28;20028;-39
2024/02/29 06:24:03;;;;;;;8.32;1.92;;;;;;;;;;5071697;28;20039;-39
2024/02/29 06:26:30;;;;;;;7.97;1.83;;;;;;;;;;5071714;28;20055;-39
2024/02/29 06:28:57;;;;;;;10.38;2.15;;;;;;;;;;5071616;28;20510;-39
2024/02/29 06:31:25;;;;;;;12.57;1.73;;;;;;;;;;5071675;28;20051;-39
2024/02/29 06:33:52;;;;;;;5.57;1.50;;;;;;;;;;5071773;28;20045;-39
2024/02/29 06:36:19;;;;;;;12.93;2.00;;;;;;;;;;5071581;28;20024;-39
2024/02/29 06:38:46;;;;;;;15.32;2.38;;;;;;;;;;5071541;28;20028;-40
2024/02/29 06:41:13;;;;;;;10.02;1.98;;;;;;;;;;5071090;28;20082;-39
2024/02/29 06:43:40;;;;;;;9.70;2.20;;;;;;;;;;5071415;28;20045;-39
2024/02/29 06:46:10;;;;;;;10.23;2.08;;;;;;;;;;5071647;28;20024;-39
2024/02/29 06:48:37;;;;;;;10.52;2.00;;;;;;;;;;5070905;28;20033;-39
2024/02/29 06:51:04;;;;;;;13.10;2.00;;;;;;;;;;5071367;28;20021;-40
2024/02/29 06:53:32;;;;;;;12.63;2.22;;;;;;;;;;5071364;28;20040;-39
2024/02/29 06:55:59;;;;;;;8.70;1.95;;;;;;;;;;5071383;28;20024;-39
2024/02/29 06:58:26;;;;;;;10.88;1.73;;;;;;;;;;5071253;28;20029;-39
2024/02/29 07:00:53;;;;;;;8.02;1.67;;;;;;;;;;5071392;28;20032;-39
2024/02/29 07:03:22;;;;;;;11.90;1.88;;;;;;;;;;5071355;28;20025;-39
2024/02/29 07:05:49;;;;;;;8.57;2.17;;;;;;;;;;5071175;28;20036;-39
2024/02/29 07:08:16;;;;;;;10.18;2.00;;;;;;;;;;5071471;28;20386;-39
2024/02/29 07:10:43;;;;;;;12.82;2.38;;;;;;;;;;5071256;28;20494;-39
2024/02/29 07:13:10;;;;;;;9.57;1.90;;;;;;;;;;5071220;28;20047;-39
2024/02/29 07:15:37;;;;;;;12.02;2.08;;;;;;;;;;5071131;28;20032;-39
2024/02/29 07:18:04;;;;;;;12.05;1.90;;;;;;;;;;5071086;28;20029;-39
2024/02/29 07:20:31;;;;;;;10.13;1.75;;;;;;;;;;5053228;28;20035;-39
2024/02/29 07:23:02;;;;;;;8.95;1.85;;;;;;;;;;5071239;28;20036;-39
2024/02/29 07:25:29;;;;;;;8.50;1.50;;;;;;;;;;5071024;28;20091;-39
2024/02/29 07:27:57;;;;;;;9.68;1.70;;;;;;;;;;5071019;28;20107;-39
2024/02/29 07:30:24;;;;;;;7.20;1.50;;;;;;;;;;5071019;28;20032;-39
2024/02/29 07:32:51;;;;;;;6.88;1.80;;;;;;;;;;5071046;28;20055;-40
2024/02/29 07:35:18;;;;;;;8.32;2.00;;;;;;;;;;5071087;28;20461;-39
2024/02/29 07:37:45;;;;;;;8.43;1.77;;;;;;;;;;5071099;28;20032;-39
2024/02/29 07:40:12;;;;;;;11.65;1.73;;;;;;;;;;5071204;28;20032;-40
2024/02/29 07:42:39;;;;;;;7.80;1.40;;;;;;;;;;5070806;28;20052;-39
2024/02/29 07:45:09;;;;;;;9.25;1.67;;;;;;;;;;5070669;28;20025;-39
2024/02/29 07:47:37;;;;;;;8.80;1.60;;;;;;;;;;5070863;28;20103;-39
2024/02/29 07:50:05;;;;;;;6.90;1.52;;;;;;;;;;5070971;28;20120;-39
2024/02/29 07:52:32;;;;;;;7.05;1.45;;;;;;;;;;5072141;28;20034;-40
2024/02/29 07:54:59;;;;;;;6.97;1.88;;;;;;;;;;5074512;28;20078;-39
2024/02/29 07:57:26;;;;;;;5.90;1.33;;;;;;;;;;5074388;28;20478;-39
2024/02/29 07:59:53;;;;;;;5.80;1.50;;;;;;;;;;5074437;28;20074;-39
2024/02/29 08:02:20;;;;;;;8.25;1.98;;;;;;;;;;5074393;28;20038;-39
2024/02/29 08:04:47;;;;;;;8.55;1.45;;;;;;;;;;5074315;28;20124;-39
2024/02/29 08:07:14;;;;;;;11.00;1.80;;;;;;;;;;5074267;28;20028;-39
2024/02/29 08:09:41;;;;;;;7.38;1.73;;;;;;;;;;5074257;28;20479;-40
2024/02/29 08:12:08;;;;;;;7.45;1.50;;;;;;;;;;5074290;28;20078;-39
2024/02/29 08:14:35;;;;;;;8.27;1.50;;;;;;;;;;5074162;28;20041;-39
2024/02/29 08:17:02;;;;;;;6.00;1.45;;;;;;;;;;5074116;28;20418;-40
2024/02/29 08:19:29;;;;;;;6.20;1.20;;;;;;;;;;5074015;28;20389;-39
2024/02/29 08:21:56;;;;;;;5.53;1.33;;;;;;;;;;5074049;28;20059;-39
2024/02/29 08:24:23;;;;;;;6.28;1.60;;;;;;;;;;5074043;28;20048;-41
2024/02/29 08:26:50;;;;;;;6.70;1.42;;;;;;;;;;5074036;28;20510;-41
2024/02/29 08:29:18;;;;;;;5.07;1.20;;;;;;;;;;5073284;28;20036;-43
2024/02/29 08:31:45;;;;;;;7.68;1.50;;;;;;;;;;5073611;28;20166;-42
2024/02/29 08:34:11;;;;;;;5.10;1.40;;;;;;;;;;5073814;28;20086;-43
2024/02/29 08:36:38;;;;;;;8.70;1.50;;;;;;;;;;5073828;28;20024;-43
2024/02/29 08:39:06;;;;;;;6.63;1.42;;;;;;;;;;5073628;28;20025;-43
2024/02/29 08:41:33;;;;;;;6.40;1.40;;;;;;;;;;5073468;28;20021;-43
2024/02/29 08:44:00;;;;;;;7.18;1.20;;;;;;;;;;5073590;28;20036;-42
2024/02/29 08:46:27;;;;;;;10.13;1.80;;;;;;;;;;5073628;28;20025;-43
2024/02/29 08:48:54;;;;;;;9.75;1.40;;;;;;;;;;5073455;28;20037;-45
2024/02/29 08:51:21;;;;;;;5.78;1.40;;;;;;;;;;5073499;28;20036;-42
2024/02/29 08:53:48;;;;;;;7.60;1.38;;;;;;;;;;5073271;28;20029;-42
2024/02/29 08:56:15;;;;;;;15.25;1.90;;;;;;;;;;5073277;28;20063;-43
2024/02/29 08:58:42;;;;;;;10.18;1.98;;;;;;;;;;5073246;28;20029;-42
2024/02/29 09:01:08;;;;;;;11.05;1.75;;;;;;;;;;5055206;28;20403;-41
2024/02/29 09:03:35;;;;;;;13.05;1.98;;;;;;;;;;5072920;28;20031;-41
2024/02/29 09:06:03;;;;;;;8.27;1.90;;;;;;;;;;5073228;28;20111;-41
2024/02/29 09:08:30;;;;;;;7.35;1.70;;;;;;;;;;5072947;28;20033;-41
2024/02/29 09:10:57;;;;;;;5.85;1.40;;;;;;;;;;5073152;28;20028;-41
2024/02/29 09:13:24;;;;;;;7.30;1.38;;;;;;;;;;5072999;28;20032;-41
2024/02/29 09:15:50;;;;;;;6.95;1.70;;;;;;;;;;5072928;28;20437;-41
2024/02/29 09:18:17;;;;;;;7.00;1.50;;;;;;;;;;5072917;28;20505;-41
2024/02/29 09:20:44;;;;;;;10.50;1.80;;;;;;;;;;5070663;28;20136;-41
2024/02/29 09:23:11;;;;;;;4.13;1.25;;;;;;;;;;5061782;28;20032;-41
2024/02/29 09:25:38;;;;;;;12.23;1.98;;;;;;;;;;5052887;28;20041;-41
2024/02/29 09:28:05;;;;;;;6.75;1.60;;;;;;;;;;5052701;28;20025;-41
2024/02/29 09:30:33;;;;;;;7.78;1.60;;;;;;;;;;5055649;28;20509;-43
2024/02/29 09:33:00;;;;;;;8.70;1.88;;;;;;;;;;5072399;28;20075;-43
2024/02/29 09:35:27;;;;;;;7.90;1.75;;;;;;;;;;5072543;28;20020;-43
2024/02/29 09:37:54;;;;;;;5.53;2.00;;;;;;;;;;5072401;28;20020;-42
2024/02/29 09:40:21;;;;;;;6.68;1.92;;;;;;;;;;5072518;28;20027;-44
2024/02/29 09:42:48;;;;;;;7.35;1.48;;;;;;;;;;5072244;28;20059;-42
2024/02/29 09:45:16;;;;;;;13.10;2.00;;;;;;;;;;5072379;28;20020;-42
2024/02/29 09:47:43;;;;;;;7.57;2.00;;;;;;;;;;5072017;28;20032;-44
2024/02/29 09:50:11;;;;;;;7.70;1.70;;;;;;;;;;5072346;28;20105;-43
2024/02/29 09:52:38;;;;;;;11.85;2.15;;;;;;;;;;5071951;28;20032;-42
2024/02/29 09:55:07;;;;;;;11.15;2.05;;;;;;;;;;5065538;28;20029;-42
2024/02/29 09:57:34;;;;;;;9.40;1.77;;;;;;;;;;5051977;28;20041;-42
2024/02/29 10:00:05;;;;;;;9.98;2.17;;;;;;;;;;5052175;28;20044;-43
2024/02/29 10:02:34;;;;;;;17.00;2.88;;;;;;;;;;5052105;28;20033;-42
2024/02/29 10:05:01;;;;;;;16.73;2.20;;;;;;;;;;5067537;28;20033;-42
2024/02/29 10:07:28;;;;;;;7.35;1.77;;;;;;;;;;5071537;28;20494;-44
2024/02/29 10:09:55;;;;;;;14.07;2.38;;;;;;;;;;5071470;28;20513;-41
2024/02/29 10:12:22;;;;;;;20.27;2.47;;;;;;;;;;5071309;28;20124;-43
2024/02/29 10:14:59;;;;;;;16.48;2.72;;;;;;;;;;5070567;28;20040;-43
2024/02/29 10:17:26;;;;;;;18.58;2.70;;;;;;;;;;5068596;28;20364;-41
2024/02/29 10:19:53;;;;;;;12.65;2.30;;;;;;;;;;5068897;28;20060;-43
2024/02/29 10:22:23;;;;;;;21.17;2.67;;;;;;;;;;5071712;28;20030;-41
2024/02/29 10:24:54;;;;;;;15.02;2.40;;;;;;;;;;5071670;28;20021;-43
2024/02/29 10:27:22;;;;;;;16.40;2.40;;;;;;;;;;5070825;28;20043;-43
2024/02/29 10:29:52;;;;;;;13.35;2.40;;;;;;;;;;5069794;28;20033;-43
2024/02/29 10:32:19;;;;;;;9.85;2.42;;;;;;;;;;5070726;28;20382;-42
2024/02/29 10:34:46;;;;;;;13.43;2.53;;;;;;;;;;5071046;28;20124;-41
2024/02/29 10:37:13;;;;;;;19.10;2.75;;;;;;;;;;5068630;28;20123;-42
2024/02/29 10:39:42;;;;;;;15.75;3.00;;;;;;;;;;5069985;28;20039;-42
2024/02/29 10:42:10;;;;;;;15.60;2.67;;;;;;;;;;5070262;28;20518;-41
2024/02/29 10:44:40;;;;;;;12.30;2.80;;;;;;;;;;5070917;28;20431;-41
2024/02/29 10:47:12;;;;;;;11.75;2.22;;;;;;;;;;5070462;28;20067;-41
2024/02/29 10:49:44;;;;;;;13.18;2.42;;;;;;;;;;5069718;28;20040;-43
2024/02/29 10:52:15;;;;;;;14.60;3.00;;;;;;;;;;5068000;28;20021;-41
2024/02/29 10:54:42;;;;;;;16.75;2.70;;;;;;;;;;5070546;28;20037;-41
2024/02/29 10:57:14;;;;;;;25.13;2.80;;;;;;;;;;5070654;28;20031;-42
2024/02/29 10:59:40;;;;;;;;;;;;;;;;;;5071152;28;20436;-41
2024/02/29 11:02:07;;;;;;;18.65;3.08;;;;;;;;;;5070896;28;19962;-41
2024/02/29 11:04:34;;;;;;;12.00;2.65;;;;;;;;;;5070854;28;20489;-42
2024/02/29 11:07:03;;;;;;;15.60;2.63;;;;;;;;;;5070645;28;20099;-42
2024/02/29 11:09:32;;;;;;;20.17;3.00;;;;;;;;;;5070820;28;20025;-42
2024/02/29 11:12:08;;;;;;;13.70;2.92;;;;;;;;;;5070642;28;20051;-42
2024/02/29 11:14:38;;;;;;;15.52;2.45;;;;;;;;;;5069467;28;20067;-43
2024/02/29 11:17:06;;;;;;;15.38;3.22;;;;;;;;;;5068061;28;20082;-43
2024/02/29 11:19:34;;;;;;;13.02;2.63;;;;;;;;;;5070466;28;20078;-42
2024/02/29 11:22:14;;;;;;;11.40;2.58;;;;;;;;;;5071250;28;20028;-41
2024/02/29 11:24:44;;;;;;;13.15;2.72;;;;;;;;;;5067075;28;20036;-42
2024/02/29 11:27:14;;;;;;;15.32;3.60;;;;;;;;;;5071213;28;20383;-42
2024/02/29 11:29:47;;;;;;;15.13;2.65;;;;;;;;;;5074229;28;20094;-43
2024/02/29 11:32:14;;;;;;;16.13;2.70;;;;;;;;;;5074431;28;20399;-43
2024/02/29 11:34:41;;;;;;;15.27;2.90;;;;;;;;;;5074491;28;20460;-42
2024/02/29 11:37:09;;;;;;;12.93;2.67;;;;;;;;;;5074307;28;20039;-41
2024/02/29 11:39:36;;;;;;;20.55;3.30;;;;;;;;;;5074018;28;20682;-42
2024/02/29 11:42:04;;;;;;;21.65;3.00;;;;;;;;;;5074308;28;20132;-43
2024/02/29 11:44:31;;;;;;;19.23;3.08;;;;;;;;;;5074797;28;20045;-42
2024/02/29 11:46:58;;;;;;;21.83;3.08;;;;;;;;;;5074594;28;20037;-42
2024/02/29 11:49:26;;;;;;;17.38;3.10;;;;;;;;;;5074597;28;20378;-42
2024/02/29 11:51:53;;;;;;;17.95;2.97;;;;;;;;;;5074642;28;20041;-42
2024/02/29 11:54:20;;;;;;;22.77;2.67;;;;;;;;;;5074550;28;20035;-42
2024/02/29 11:56:48;;;;;;;12.13;3.08;;;;;;;;;;5074557;28;20039;-42
2024/02/29 11:59:17;;;;;;;19.95;3.00;;;;;;;;;;5074372;28;20052;-42
2024/02/29 12:01:45;;;;;;;17.83;3.80;;;;;;;;;;5074415;28;20402;-42
2024/02/29 12:04:12;;;;;;;16.15;2.97;;;;;;;;;;5074740;28;20029;-42
2024/02/29 12:09:56;;;;;;;18.30;3.30;;;;;;;;;;5076305;28;20089;-42
2024/02/29 12:15:40;;;;;;;16.92;3.70;;;;;;;;;;5076162;28;20066;-42
2024/02/29 12:18:09;;;;;;;12.85;2.92;;;;;;;;;;5073720;28;20029;-42
2024/02/29 12:20:36;;;;;;;14.98;3.65;;;;;;;;;;5074205;28;20415;-42
2024/02/29 12:23:03;;;;;;;14.77;3.17;;;;;;;;;;5074113;28;20035;-42
2024/02/29 12:25:30;;;;;;;11.85;3.08;;;;;;;;;;5073987;28;20055;-41
2024/02/29 12:27:57;;;;;;;14.25;3.05;;;;;;;;;;5073713;28;20075;-42
2024/02/29 12:30:24;;;;;;;11.43;3.03;;;;;;;;;;5073881;28;20032;-42
2024/02/29 12:32:52;;;;;;;7.93;2.25;;;;;;;;;;5073871;28;20082;-42
2024/02/29 12:35:19;;;;;;;9.43;2.60;;;;;;;;;;5073945;28;20035;-42
2024/02/29 12:37:46;;;;;;;9.25;2.40;;;;;;;;;;5073072;28;20032;-42
2024/02/29 12:40:13;;;;;;;10.75;2.80;;;;;;;;;;5073697;28;20021;-42
2024/02/29 12:42:43;;;;;;;9.18;2.28;;;;;;;;;;5073373;28;20055;-41
2024/02/29 12:45:10;;;;;;;9.18;2.20;;;;;;;;;;5073655;28;20111;-41
2024/02/29 12:47:38;;;;;;;8.25;2.65;;;;;;;;;;5073573;28;20048;-41
2024/02/29 12:50:07;;;;;;;9.63;2.70;;;;;;;;;;5073507;28;20048;-41
2024/02/29 12:52:37;;;;;;;10.43;3.00;;;;;;;;;;5073492;28;20107;-41
2024/02/29 12:55:04;;;;;;;11.38;2.53;;;;;;;;;;5073471;28;20039;-41
2024/02/29 12:57:31;;;;;;;7.97;2.67;;;;;;;;;;5073480;28;20024;-41
2024/02/29 12:59:58;;;;;;;12.00;2.78;;;;;;;;;;5073425;28;20109;-41
2024/02/29 13:02:25;;;;;;;15.10;3.03;;;;;;;;;;5072793;28;20056;-41
2024/02/29 13:04:52;;;;;;;10.32;2.35;;;;;;;;;;5073258;28;20054;-41
2024/02/29 13:07:19;;;;;;;7.70;2.55;;;;;;;;;;5073062;28;20044;-41
2024/02/29 13:09:46;;;;;;;13.48;2.80;;;;;;;;;;5073218;28;20078;-41
2024/02/29 13:12:13;;;;;;;7.43;2.13;;;;;;;;;;5073162;28;20021;-41
2024/02/29 13:14:40;;;;;;;8.00;2.00;;;;;;;;;;5073088;28;20029;-41
2024/02/29 13:17:08;;;;;;;12.07;3.08;;;;;;;;;;5072943;28;20588;-41
2024/02/29 13:19:35;;;;;;;11.45;2.80;;;;;;;;;;5072960;28;20021;-41
2024/02/29 13:22:03;;;;;;;10.30;2.78;;;;;;;;;;5072973;28;20024;-41
2024/02/29 13:24:30;;;;;;;10.23;1.98;;;;;;;;;;5072723;28;20538;-41
2024/02/29 13:26:57;;;;;;;13.02;2.58;;;;;;;;;;5072598;28;20068;-42
2024/02/29 13:29:24;;;;;;;9.43;2.50;;;;;;;;;;5072718;28;20067;-42
2024/02/29 13:31:51;;;;;;;14.23;2.75;;;;;;;;;;5054671;28;20059;-42
2024/02/29 13:34:18;;;;;;;10.90;2.30;;;;;;;;;;5072673;28;20033;-42
2024/02/29 13:36:45;;;;;;;10.60;1.98;;;;;;;;;;5072550;28;20115;-42
2024/02/29 13:39:12;;;;;;;8.82;2.00;;;;;;;;;;5054486;28;20044;-41
2024/02/29 13:41:39;;;;;;;11.57;2.17;;;;;;;;;;5072595;28;20027;-41
2024/02/29 13:44:06;;;;;;;10.80;1.98;;;;;;;;;;5072271;28;20044;-41
2024/02/29 13:46:33;;;;;;;7.97;2.42;;;;;;;;;;5072450;28;20115;-41
2024/02/29 13:49:00;;;;;;;20.48;3.25;;;;;;;;;;5071819;28;20017;-41
2024/02/29 13:51:28;;;;;;;11.82;2.33;;;;;;;;;;5072142;28;20368;-41
2024/02/29 13:53:55;;;;;;;18.80;3.20;;;;;;;;;;5072242;28;20028;-41
2024/02/29 13:56:23;;;;;;;8.50;2.38;;;;;;;;;;5072262;28;20624;-41
2024/02/29 13:58:50;;;;;;;13.98;2.92;;;;;;;;;;5072153;28;20493;-41
2024/02/29 14:01:18;;;;;;;13.98;2.97;;;;;;;;;;5072206;28;20033;-41
2024/02/29 14:03:45;;;;;;;11.82;2.30;;;;;;;;;;5072007;28;20074;-41
2024/02/29 14:06:13;;;;;;;16.23;2.70;;;;;;;;;;5072145;28;20024;-41
2024/02/29 14:08:40;;;;;;;10.48;2.25;;;;;;;;;;5071978;28;20036;-40
2024/02/29 14:11:08;;;;;;;12.95;1.98;;;;;;;;;;5072051;28;20434;-42
2024/02/29 14:13:35;;;;;;;15.02;3.28;;;;;;;;;;5071760;28;20568;-40
2024/02/29 14:16:02;;;;;;;14.15;2.40;;;;;;;;;;5071960;28;20767;-41
2024/02/29 14:18:30;;;;;;;10.70;2.30;;;;;;;;;;5071913;28;20025;-41
2024/02/29 14:20:57;;;;;;;19.73;2.92;;;;;;;;;;5071835;28;20024;-41
2024/02/29 14:23:24;;;;;;;13.80;2.50;;;;;;;;;;5071912;28;20024;-41
2024/02/29 14:25:50;;;;;;;14.50;2.97;;;;;;;;;;5071910;28;20021;-41
2024/02/29 14:28:17;;;;;;;10.18;2.67;;;;;;;;;;5071740;28;20471;-41
2024/02/29 14:30:44;;;;;;;11.35;2.38;;;;;;;;;;5071768;28;20041;-41
2024/02/29 14:33:11;;;;;;;9.70;2.47;;;;;;;;;;5071743;28;20035;-41
2024/02/29 14:35:38;;;;;;;8.50;2.42;;;;;;;;;;5071760;28;20035;-41
2024/02/29 14:38:05;;;;;;;12.68;2.30;;;;;;;;;;5071513;28;20394;-41
2024/02/29 14:40:32;;;;;;;13.27;2.50;;;;;;;;;;5071877;28;20367;-41